createdAt,value
2023-05-14T00:00:24.730Z,8.43
2023-05-14T00:02:52.934Z,8.10
2023-05-14T00:05:20.991Z,9.17
2023-05-14T00:07:48.867Z,9.50
2023-05-14T00:10:17.637Z,9.80
2023-05-14T00:12:45.576Z,9.60
2023-05-14T00:15:14.780Z,8.80
2023-05-14T00:17:43.464Z,8.43
2023-05-14T00:20:12.479Z,8.60
2023-05-14T00:22:41.301Z,8.37
2023-05-14T00:25:10.118Z,8.23
2023-05-14T00:27:38.549Z,8.53
2023-05-14T00:30:07.685Z,8.10
2023-05-14T00:32:36.992Z,8.30
2023-05-14T00:35:05.453Z,8.10
2023-05-14T00:37:33.388Z,8.63
2023-05-14T00:40:01.620Z,8.20
2023-05-14T00:42:29.693Z,8.67
2023-05-14T00:44:57.549Z,9.07
2023-05-14T00:47:25.784Z,8.40
2023-05-14T00:49:55.276Z,8.53
2023-05-14T00:52:23.258Z,8.17
2023-05-14T00:54:51.365Z,7.60
2023-05-14T00:57:19.729Z,7.67
2023-05-14T00:59:47.633Z,8.40
2023-05-14T01:02:17.235Z,8.13
2023-05-14T01:04:45.153Z,8.77
2023-05-14T01:07:24.912Z,7.87
2023-05-14T01:09:58.368Z,8.13
2023-05-14T01:12:34.039Z,8.20
2023-05-14T01:15:07.263Z,8.60
2023-05-14T01:17:39.535Z,8.60
2023-05-14T01:20:09.594Z,8.60
2023-05-14T01:22:38.921Z,7.73
2023-05-14T01:25:08.095Z,8.03
2023-05-14T01:27:43.614Z,8.57
2023-05-14T01:30:18.754Z,8.73
2023-05-14T01:32:51.833Z,8.13
2023-05-14T01:35:21.260Z,8.53
2023-05-14T01:37:51.207Z,7.97
2023-05-14T01:40:19.556Z,8.70
2023-05-14T01:42:47.975Z,9.03
2023-05-14T01:45:16.296Z,9.57
2023-05-14T01:47:44.289Z,9.00
2023-05-14T01:50:12.387Z,9.47
2023-05-14T01:52:40.344Z,9.77
2023-05-14T01:55:10.651Z,9.17
2023-05-14T01:57:38.536Z,9.20
2023-05-14T02:00:07.880Z,9.30
2023-05-14T02:02:41.867Z,9.13
2023-05-14T02:05:13.481Z,8.57
2023-05-14T02:07:41.616Z,8.93
2023-05-14T02:10:12.009Z,9.17
2023-05-14T02:12:39.955Z,8.50
2023-05-14T02:15:10.927Z,8.83
2023-05-14T02:17:39.197Z,8.43
2023-05-14T02:20:10.153Z,8.93
2023-05-14T02:22:38.680Z,7.93
2023-05-14T02:25:07.641Z,7.97
2023-05-14T02:27:36.896Z,8.20
2023-05-14T02:30:06.166Z,8.37
2023-05-14T02:32:34.407Z,8.30
2023-05-14T02:35:03.311Z,8.60
2023-05-14T02:37:31.434Z,8.07
2023-05-14T02:39:59.438Z,8.87
2023-05-14T02:42:27.565Z,9.23
2023-05-14T02:44:56.767Z,9.20
2023-05-14T02:47:24.684Z,9.27
2023-05-14T02:49:52.708Z,8.33
2023-05-14T02:52:21.435Z,9.20
2023-05-14T02:54:49.451Z,8.97
2023-05-14T02:57:17.449Z,9.70
2023-05-14T02:59:45.301Z,9.03
2023-05-14T03:02:14.924Z,8.67
2023-05-14T03:04:43.369Z,9.20
2023-05-14T03:07:11.301Z,8.30
2023-05-14T03:09:39.164Z,8.90
2023-05-14T03:12:08.522Z,8.47
2023-05-14T03:14:36.429Z,9.53
2023-05-14T03:17:04.568Z,8.20
2023-05-14T03:19:33.925Z,9.37
2023-05-14T03:22:02.013Z,9.70
2023-05-14T03:24:30.252Z,8.80
2023-05-14T03:26:58.219Z,9.10
2023-05-14T03:29:26.087Z,8.87
2023-05-14T03:31:54.547Z,9.10
2023-05-14T03:34:22.375Z,9.17
2023-05-14T03:36:51.650Z,9.23
2023-05-14T03:39:20.039Z,9.60
2023-05-14T03:41:48.364Z,9.07
2023-05-14T03:44:16.472Z,9.73
2023-05-14T03:46:59.263Z,9.77
2023-05-14T03:49:27.509Z,10.03
2023-05-14T03:51:58.138Z,9.70
2023-05-14T03:54:26.243Z,10.40
2023-05-14T03:56:54.568Z,10.27
2023-05-14T03:59:22.439Z,10.03
2023-05-14T04:01:51.132Z,10.10
2023-05-14T04:04:20.848Z,9.80
2023-05-14T04:06:48.762Z,9.30
2023-05-14T04:09:18.006Z,9.83
2023-05-14T04:11:46.172Z,9.87
2023-05-14T04:14:14.046Z,9.63
2023-05-14T04:16:42.179Z,9.97
2023-05-14T04:19:10.324Z,9.70
2023-05-14T04:21:38.204Z,9.43
2023-05-14T04:24:06.743Z,10.80
2023-05-14T04:26:36.452Z,9.03
2023-05-14T04:29:04.417Z,9.27
2023-05-14T04:31:32.545Z,9.60
2023-05-14T04:34:00.453Z,9.60
2023-05-14T04:36:28.381Z,9.63
2023-05-14T04:38:56.811Z,8.87
2023-05-14T04:41:24.788Z,9.13
2023-05-14T04:43:57.088Z,8.20
2023-05-14T04:46:25.021Z,8.67
2023-05-14T04:48:52.944Z,8.63
2023-05-14T04:51:20.814Z,8.80
2023-05-14T04:53:48.729Z,8.37
2023-05-14T04:56:16.618Z,8.80
2023-05-14T04:58:44.520Z,8.57
2023-05-14T05:01:13.849Z,7.90
2023-05-14T05:03:41.837Z,8.00
2023-05-14T05:06:09.741Z,8.90
2023-05-14T05:08:37.990Z,8.83
2023-05-14T05:11:06.312Z,7.87
2023-05-14T05:13:34.225Z,8.37
2023-05-14T05:16:02.366Z,7.93
2023-05-14T05:18:31.706Z,8.63
2023-05-14T05:21:00.692Z,8.20
2023-05-14T05:23:28.606Z,8.17
2023-05-14T05:25:56.452Z,8.50
2023-05-14T05:28:24.363Z,8.03
2023-05-14T05:30:52.412Z,7.90
2023-05-14T05:33:20.642Z,8.23
2023-05-14T05:35:50.189Z,7.90
2023-05-14T05:38:19.061Z,7.80
2023-05-14T05:40:46.949Z,7.57
2023-05-14T05:43:15.685Z,7.43
2023-05-14T05:45:43.609Z,7.23
2023-05-14T05:48:11.462Z,7.53
2023-05-14T05:50:39.286Z,7.37
2023-05-14T05:53:08.526Z,7.40
2023-05-14T05:55:36.601Z,7.77
2023-05-14T05:58:04.605Z,7.87
2023-05-14T06:00:32.490Z,7.20
2023-05-14T06:03:00.402Z,7.60
2023-05-14T06:05:28.379Z,7.60
2023-05-14T06:07:56.288Z,7.40
2023-05-14T06:10:25.649Z,7.40
2023-05-14T06:12:53.681Z,7.70
2023-05-14T06:15:21.780Z,7.67
2023-05-14T06:17:49.733Z,8.00
2023-05-14T06:20:17.803Z,7.87
2023-05-14T06:22:45.729Z,7.73
2023-05-14T06:25:13.862Z,7.50
2023-05-14T06:27:43.313Z,7.73
2023-05-14T06:30:12.427Z,7.70
2023-05-14T06:32:40.421Z,7.90
2023-05-14T06:35:09.503Z,8.27
2023-05-14T06:37:37.327Z,7.43
2023-05-14T06:40:06.480Z,7.43
2023-05-14T06:42:34.380Z,7.50
2023-05-14T06:45:03.821Z,7.50
2023-05-14T06:47:31.727Z,7.43
2023-05-14T06:50:01.059Z,7.00
2023-05-14T06:52:29.060Z,7.37
2023-05-14T06:54:57.011Z,7.60
2023-05-14T06:57:24.932Z,7.50
2023-05-14T06:59:53.078Z,6.93
2023-05-14T07:02:22.435Z,7.73
2023-05-14T07:04:50.337Z,7.67
2023-05-14T07:07:20.712Z,7.50
2023-05-14T07:09:48.811Z,7.03
2023-05-14T07:12:16.705Z,7.47
2023-05-14T07:14:44.559Z,8.57
2023-05-14T07:17:13.777Z,7.63
2023-05-14T07:19:43.017Z,7.57
2023-05-14T07:22:11.144Z,7.30
2023-05-14T07:24:39.060Z,7.17
2023-05-14T07:27:07.114Z,7.67
2023-05-14T07:29:35.680Z,7.90
2023-05-14T07:32:03.761Z,7.30
2023-05-14T07:34:31.793Z,7.63
2023-05-14T07:37:01.180Z,7.27
2023-05-14T07:39:29.133Z,7.47
2023-05-14T07:41:57.015Z,7.73
2023-05-14T07:44:24.965Z,8.07
2023-05-14T07:46:52.987Z,7.80
2023-05-14T07:49:20.958Z,7.87
2023-05-14T07:51:48.858Z,8.03
2023-05-14T07:54:18.115Z,7.77
2023-05-14T07:56:45.987Z,7.90
2023-05-14T07:59:13.850Z,8.67
2023-05-14T08:01:41.967Z,8.20
2023-05-14T08:04:11.621Z,8.13
2023-05-14T08:06:39.645Z,7.83
2023-05-14T08:09:08.650Z,7.73
2023-05-14T08:11:39.117Z,7.67
2023-05-14T08:14:07.031Z,8.00
2023-05-14T08:16:34.901Z,7.13
2023-05-14T08:19:02.769Z,7.07
2023-05-14T08:21:30.843Z,8.00
2023-05-14T08:23:58.800Z,8.00
2023-05-14T08:26:26.666Z,8.13
2023-05-14T08:28:56.169Z,7.50
2023-05-14T08:31:24.178Z,7.60
2023-05-14T08:33:52.151Z,7.67
2023-05-14T08:36:20.573Z,7.47
2023-05-14T08:38:50.372Z,8.03
2023-05-14T08:41:18.696Z,8.20
2023-05-14T08:43:58.080Z,8.07
2023-05-14T08:46:30.799Z,7.70
2023-05-14T08:49:05.857Z,6.77
2023-05-14T08:51:34.568Z,8.43
2023-05-14T08:54:04.345Z,7.50
2023-05-14T08:56:34.415Z,8.00
2023-05-14T08:59:02.628Z,7.87
2023-05-14T09:01:32.591Z,7.30
2023-05-14T09:04:06.957Z,7.80
2023-05-14T09:06:38.829Z,8.73
2023-05-14T09:09:07.974Z,7.97
2023-05-14T09:11:41.329Z,8.33
2023-05-14T09:14:09.260Z,8.27
2023-05-14T09:16:39.205Z,9.73
2023-05-14T09:19:08.109Z,8.83
2023-05-14T09:21:36.816Z,8.67
2023-05-14T09:24:05.061Z,8.97
2023-05-14T09:26:33.894Z,9.70
2023-05-14T09:29:03.639Z,9.60
2023-05-14T09:31:32.487Z,9.60
2023-05-14T09:34:02.180Z,9.20
2023-05-14T09:36:30.797Z,8.70
2023-05-14T09:38:58.902Z,9.13
2023-05-14T09:41:27.000Z,8.50
2023-05-14T09:43:56.811Z,7.93
2023-05-14T09:46:30.026Z,7.77
2023-05-14T09:48:58.411Z,6.57
2023-05-14T09:51:31.456Z,6.97
2023-05-14T09:53:59.882Z,6.13
2023-05-14T09:56:27.788Z,7.43
2023-05-14T09:58:55.787Z,8.87
2023-05-14T10:01:24.663Z,8.00
2023-05-14T10:03:54.732Z,8.60
2023-05-14T10:06:24.959Z,8.00
2023-05-14T10:08:57.078Z,7.17
2023-05-14T10:11:29.560Z,7.23
2023-05-14T10:14:04.155Z,7.17
2023-05-14T10:16:34.960Z,6.40
2023-05-14T10:19:09.300Z,5.57
2023-05-14T10:21:39.096Z,6.27
2023-05-14T10:24:10.623Z,5.50
2023-05-14T10:26:41.996Z,5.90
2023-05-14T10:29:11.361Z,5.33
2023-05-14T10:31:50.400Z,5.40
2023-05-14T10:34:38.650Z,5.37
2023-05-14T10:37:08.972Z,6.43
2023-05-14T10:39:46.264Z,5.90
2023-05-14T10:42:16.228Z,5.87
2023-05-14T10:44:53.469Z,6.20
2023-05-14T10:47:21.475Z,5.73
2023-05-14T10:49:50.095Z,6.23
2023-05-14T10:52:20.335Z,6.00
2023-05-14T10:54:52.699Z,5.00
2023-05-14T10:57:21.599Z,5.50
2023-05-14T10:59:53.155Z,6.00
2023-05-14T11:02:23.745Z,6.90
2023-05-14T11:04:57.424Z,6.80
2023-05-14T11:07:28.794Z,7.23
2023-05-14T11:10:02.833Z,7.50
2023-05-14T11:12:31.308Z,6.57
2023-05-14T11:15:00.500Z,6.73
2023-05-14T11:17:29.663Z,5.87
2023-05-14T11:19:58.611Z,6.90
2023-05-14T11:22:26.760Z,6.43
2023-05-14T11:24:54.861Z,6.10
2023-05-14T11:27:24.470Z,5.90
2023-05-14T11:29:52.531Z,6.20
2023-05-14T11:32:21.307Z,5.77
2023-05-14T11:34:49.284Z,6.00
2023-05-14T11:37:18.144Z,5.70
2023-05-14T11:39:50.689Z,5.80
2023-05-14T11:42:19.674Z,5.20
2023-05-14T11:44:51.697Z,5.57
2023-05-14T11:47:21.114Z,5.67
2023-05-14T11:49:49.792Z,5.80
2023-05-14T11:52:19.428Z,5.67
2023-05-14T11:54:49.622Z,5.60
2023-05-14T11:57:19.405Z,4.70
2023-05-14T11:59:49.792Z,5.07
2023-05-14T12:02:19.733Z,4.40
2023-05-14T12:04:52.143Z,4.70
2023-05-14T12:07:20.362Z,4.53
2023-05-14T12:09:49.872Z,4.57
2023-05-14T12:12:19.875Z,4.60
2023-05-14T12:14:50.612Z,4.17
2023-05-14T12:17:20.570Z,4.53
2023-05-14T12:19:50.794Z,5.07
2023-05-14T12:22:20.237Z,4.77
2023-05-14T12:24:54.379Z,4.43
2023-05-14T12:27:23.535Z,4.73
2023-05-14T12:30:09.129Z,5.30
2023-05-14T12:32:41.874Z,5.00
2023-05-14T12:35:10.383Z,5.07
2023-05-14T12:37:39.840Z,5.23
2023-05-14T12:40:09.491Z,5.43
2023-05-14T12:42:38.272Z,4.83
2023-05-14T12:45:08.896Z,4.27
2023-05-14T12:47:37.472Z,3.87
2023-05-14T12:50:06.890Z,2.97
2023-05-14T12:52:39.768Z,3.37
2023-05-14T12:55:09.040Z,3.70
2023-05-14T12:57:38.404Z,3.80
2023-05-14T13:00:12.926Z,3.70
2023-05-14T13:02:43.670Z,3.67
2023-05-14T13:05:12.791Z,3.67
2023-05-14T13:07:40.984Z,4.53
2023-05-14T13:10:09.937Z,3.60
2023-05-14T13:12:38.730Z,4.20
2023-05-14T13:15:09.356Z,3.80
2023-05-14T13:17:37.503Z,3.30
2023-05-14T13:20:06.247Z,3.67
2023-05-14T13:22:34.205Z,3.57
2023-05-14T13:25:02.191Z,3.83
2023-05-14T13:27:30.400Z,3.53
2023-05-14T13:29:58.784Z,3.63
2023-05-14T13:32:28.188Z,3.40
2023-05-14T13:34:56.098Z,4.20
2023-05-14T13:37:25.340Z,3.40
2023-05-14T13:39:53.362Z,3.83
2023-05-14T13:42:21.353Z,3.67
2023-05-14T13:44:49.251Z,3.20
2023-05-14T13:47:17.359Z,4.07
2023-05-14T13:49:46.574Z,3.83
2023-05-14T13:52:14.594Z,4.47
2023-05-14T13:54:42.467Z,3.73
2023-05-14T13:57:10.379Z,3.60
2023-05-14T13:59:38.385Z,3.80
2023-05-14T14:02:06.898Z,4.13
2023-05-14T14:04:34.836Z,3.10
2023-05-14T14:07:04.282Z,3.20
2023-05-14T14:09:35.108Z,3.33
2023-05-14T14:12:04.552Z,2.87
2023-05-14T14:14:32.849Z,2.60
2023-05-14T14:17:00.704Z,2.43
2023-05-14T14:19:28.601Z,2.80
2023-05-14T14:21:56.517Z,3.10
2023-05-14T14:24:25.885Z,2.90
2023-05-14T14:26:53.845Z,3.50
2023-05-14T14:29:23.750Z,3.50
2023-05-14T14:31:51.750Z,3.73
2023-05-14T14:34:19.725Z,3.03
2023-05-14T14:36:47.622Z,3.27
2023-05-14T14:39:15.537Z,3.23
2023-05-14T14:41:45.608Z,3.10
2023-05-14T14:44:13.649Z,3.87
2023-05-14T14:46:42.800Z,3.13
2023-05-14T14:49:10.688Z,2.47
2023-05-14T14:51:38.600Z,3.00
2023-05-14T14:54:06.809Z,2.60
2023-05-14T14:56:35.349Z,2.47
2023-05-14T14:59:04.589Z,2.43
2023-05-14T15:01:32.653Z,2.60
2023-05-14T15:04:00.841Z,2.30
2023-05-14T15:06:29.005Z,2.53
2023-05-14T15:08:56.901Z,2.45
2023-05-14T15:11:24.880Z,2.53
2023-05-14T15:13:53.001Z,2.42
2023-05-14T15:16:22.287Z,2.55
2023-05-14T15:18:50.352Z,2.40
2023-05-14T15:21:18.242Z,2.40
2023-05-14T15:23:46.098Z,2.50
2023-05-14T15:26:13.939Z,2.47
2023-05-14T15:28:41.842Z,2.17
2023-05-14T15:31:09.864Z,2.38
2023-05-14T15:33:39.153Z,2.50
2023-05-14T15:36:07.219Z,2.70
2023-05-14T15:38:35.137Z,2.80
2023-05-14T15:41:03.073Z,3.63
2023-05-14T15:43:30.999Z,4.47
2023-05-14T15:45:59.494Z,4.17
2023-05-14T15:48:30.329Z,3.20
2023-05-14T15:50:59.851Z,4.43
2023-05-14T15:53:27.729Z,7.53
2023-05-14T15:55:56.339Z,4.93
2023-05-14T15:58:24.233Z,3.93
2023-05-14T16:00:52.150Z,5.33
2023-05-14T16:03:20.137Z,5.03
2023-05-14T16:05:48.530Z,4.87
2023-05-14T16:08:17.822Z,4.40
2023-05-14T16:10:45.696Z,3.80
2023-05-14T16:13:13.552Z,3.53
2023-05-14T16:15:41.571Z,3.50
2023-05-14T16:18:09.495Z,3.57
2023-05-14T16:20:37.478Z,3.70
2023-05-14T16:23:05.571Z,3.90
2023-05-14T16:25:34.820Z,4.30
2023-05-14T16:28:02.670Z,3.80
2023-05-14T16:30:30.835Z,3.40
2023-05-14T16:32:58.785Z,3.30
2023-05-14T16:35:26.984Z,3.60
2023-05-14T16:37:54.904Z,3.40
2023-05-14T16:40:23.346Z,3.20
2023-05-14T16:42:52.921Z,3.13
2023-05-14T16:45:20.798Z,3.43
2023-05-14T16:47:48.731Z,3.60
2023-05-14T16:50:16.682Z,3.13
2023-05-14T16:52:44.568Z,2.87
2023-05-14T16:55:12.372Z,3.17
2023-05-14T16:57:40.282Z,2.90
2023-05-14T17:00:11.199Z,3.00
2023-05-14T17:02:39.206Z,3.20
2023-05-14T17:05:08.521Z,2.90
2023-05-14T17:07:38.813Z,2.50
2023-05-14T17:10:07.749Z,2.80
2023-05-14T17:12:35.681Z,3.27
2023-05-14T17:15:05.510Z,3.50
2023-05-14T17:17:35.429Z,3.17
2023-05-14T17:20:05.585Z,3.70
2023-05-14T17:22:34.063Z,4.70
2023-05-14T17:25:01.916Z,4.33
2023-05-14T17:27:33.125Z,3.60
2023-05-14T17:30:01.308Z,4.33
2023-05-14T17:32:29.536Z,3.60
2023-05-14T17:34:59.081Z,3.57
2023-05-14T17:37:27.318Z,3.67
2023-05-14T17:39:55.502Z,3.07
2023-05-14T17:42:23.412Z,2.70
2023-05-14T17:44:51.391Z,2.93
2023-05-14T17:47:20.543Z,3.30
2023-05-14T17:49:48.728Z,3.30
2023-05-14T17:52:17.991Z,2.80
2023-05-14T17:54:45.981Z,2.97
2023-05-14T17:57:13.962Z,3.47
2023-05-14T17:59:41.993Z,3.80
2023-05-14T18:02:10.044Z,3.37
2023-05-14T18:04:38.511Z,2.90
2023-05-14T18:07:06.760Z,3.00
2023-05-14T18:09:36.081Z,2.80
2023-05-14T18:12:04.145Z,3.70
2023-05-14T18:14:32.100Z,3.30
2023-05-14T18:17:00.210Z,3.30
2023-05-14T18:19:28.308Z,2.90
2023-05-14T18:21:56.293Z,3.27
2023-05-14T18:24:24.153Z,3.73
2023-05-14T18:26:53.675Z,3.63
2023-05-14T18:29:21.801Z,4.00
2023-05-14T18:31:49.937Z,4.40
2023-05-14T18:34:18.010Z,5.17
2023-05-14T18:36:46.018Z,3.70
2023-05-14T18:39:13.889Z,3.20
2023-05-14T18:41:41.834Z,3.70
2023-05-14T18:44:11.101Z,3.60
2023-05-14T18:46:39.381Z,3.87
2023-05-14T18:49:07.400Z,3.87
2023-05-14T18:51:35.349Z,3.20
2023-05-14T18:54:03.186Z,3.67
2023-05-14T18:56:31.712Z,3.43
2023-05-14T18:58:59.590Z,3.10
2023-05-14T19:01:28.912Z,3.17
2023-05-14T19:03:57.068Z,3.60
2023-05-14T19:06:25.001Z,3.50
2023-05-14T19:08:52.990Z,3.50
2023-05-14T19:11:21.887Z,3.67
2023-05-14T19:13:49.899Z,3.27
2023-05-14T19:16:17.906Z,3.30
2023-05-14T19:18:47.164Z,3.70
2023-05-14T19:21:15.835Z,3.70
2023-05-14T19:23:43.717Z,3.23
2023-05-14T19:26:11.709Z,3.17
2023-05-14T19:28:39.741Z,3.63
2023-05-14T19:31:07.804Z,3.97
2023-05-14T19:33:35.758Z,3.40
2023-05-14T19:36:06.042Z,3.40
2023-05-14T19:38:33.955Z,3.80
2023-05-14T19:41:01.896Z,3.40
2023-05-14T19:43:29.741Z,3.47
2023-05-14T19:45:59.427Z,3.37
2023-05-14T19:48:28.409Z,3.53
2023-05-14T19:50:56.349Z,3.77
2023-05-14T19:53:29.602Z,3.93
2023-05-14T19:55:57.625Z,3.57
2023-05-14T19:58:25.852Z,3.40
2023-05-14T20:00:56.606Z,3.90
2023-05-14T20:03:26.442Z,3.80
2023-05-14T20:05:54.730Z,3.70
2023-05-14T20:08:22.685Z,3.90
2023-05-14T20:10:51.892Z,3.60
2023-05-14T20:13:19.768Z,3.70
2023-05-14T20:15:47.648Z,3.87
2023-05-14T20:18:15.558Z,3.83
2023-05-14T20:20:43.864Z,3.83
2023-05-14T20:23:11.710Z,4.13
2023-05-14T20:25:39.671Z,4.03
2023-05-14T20:28:08.940Z,3.73
2023-05-14T20:30:36.884Z,4.17
2023-05-14T20:33:05.215Z,4.10
2023-05-14T20:35:33.334Z,4.33
2023-05-14T20:38:02.109Z,4.90
2023-05-14T20:40:30.073Z,4.10
2023-05-14T20:42:58.206Z,4.50
2023-05-14T20:45:27.729Z,4.33
2023-05-14T20:47:55.804Z,4.13
2023-05-14T20:50:26.871Z,4.90
2023-05-14T20:52:55.653Z,4.10
2023-05-14T20:55:23.829Z,4.73
2023-05-14T20:57:51.915Z,4.73
2023-05-14T21:00:20.646Z,4.07
2023-05-14T21:02:50.165Z,4.33
2023-05-14T21:05:18.487Z,4.27
2023-05-14T21:07:46.619Z,4.20
2023-05-14T21:10:14.545Z,4.03
2023-05-14T21:12:43.460Z,4.23
2023-05-14T21:15:12.984Z,4.20
2023-05-14T21:17:40.922Z,4.70
2023-05-14T21:20:13.371Z,4.70
2023-05-14T21:22:41.925Z,4.47
2023-05-14T21:25:10.927Z,4.30
2023-05-14T21:27:39.013Z,4.33
2023-05-14T21:30:08.227Z,4.70
2023-05-14T21:32:36.163Z,5.30
2023-05-14T21:35:05.122Z,4.80
2023-05-14T21:37:34.687Z,4.80
2023-05-14T21:40:02.626Z,4.60
2023-05-14T21:42:30.573Z,5.00
2023-05-14T21:44:58.490Z,4.63
2023-05-14T21:47:26.813Z,4.70
2023-05-14T21:49:54.793Z,4.47
2023-05-14T21:52:22.661Z,4.63
2023-05-14T21:54:51.990Z,4.70
2023-05-14T21:57:19.878Z,4.93
2023-05-14T21:59:47.788Z,4.93
2023-05-14T22:02:15.748Z,4.50
2023-05-14T22:04:43.764Z,4.47
2023-05-14T22:07:11.710Z,4.60
2023-05-14T22:09:39.687Z,4.67
2023-05-14T22:12:09.477Z,4.70
2023-05-14T22:14:37.418Z,4.70
2023-05-14T22:17:05.667Z,4.70
2023-05-14T22:19:33.564Z,3.93
2023-05-14T22:22:01.506Z,4.57
2023-05-14T22:24:29.324Z,4.63
2023-05-14T22:26:57.176Z,4.73
2023-05-14T22:29:26.648Z,4.87
2023-05-14T22:31:54.627Z,5.00
2023-05-14T22:34:22.466Z,4.57
2023-05-14T22:36:50.606Z,4.30
2023-05-14T22:39:18.490Z,4.60
2023-05-14T22:41:46.339Z,4.40
2023-05-14T22:44:14.189Z,4.40
2023-05-14T22:46:43.431Z,4.53
2023-05-14T22:49:11.301Z,4.90
2023-05-14T22:51:39.588Z,4.17
2023-05-14T22:54:07.539Z,4.40
2023-05-14T22:56:36.406Z,4.23
2023-05-14T22:59:04.519Z,4.40
2023-05-14T23:01:33.054Z,4.30
2023-05-14T23:04:02.345Z,4.47
2023-05-14T23:06:31.708Z,4.43
2023-05-14T23:08:59.600Z,4.30
2023-05-14T23:11:27.982Z,4.50
2023-05-14T23:13:55.910Z,4.10
2023-05-14T23:16:23.825Z,4.23
2023-05-14T23:18:52.111Z,3.90
2023-05-14T23:21:21.354Z,4.13
2023-05-14T23:23:49.284Z,4.53
2023-05-14T23:26:17.154Z,4.10
2023-05-14T23:28:45.053Z,4.07
2023-05-14T23:31:13.292Z,5.00
2023-05-14T23:33:41.158Z,4.33
2023-05-14T23:36:09.828Z,4.27
2023-05-14T23:38:39.327Z,4.93
2023-05-14T23:41:07.168Z,3.93
2023-05-14T23:43:35.100Z,3.73
2023-05-14T23:46:03.361Z,4.23
2023-05-14T23:48:31.427Z,4.03
2023-05-14T23:50:59.362Z,4.23
2023-05-14T23:53:27.389Z,4.53
2023-05-14T23:55:56.605Z,4.07
2023-05-14T23:58:24.586Z,4.20
